createdAt,value
2023-06-19T05:01:02.808Z,1001.18
2023-06-19T05:02:02.716Z,1001.07
2023-06-19T05:03:02.743Z,1001.16
2023-06-19T05:04:02.700Z,1001.12
2023-06-19T05:05:02.677Z,1001.16
2023-06-19T05:06:02.690Z,1001.11
2023-06-19T05:07:02.666Z,1001.24
2023-06-19T05:08:02.669Z,1001.27
2023-06-19T05:09:02.640Z,1001.20
2023-06-19T05:10:02.624Z,1001.20
2023-06-19T05:11:02.666Z,1001.22
2023-06-19T05:12:07.634Z,1001.19
2023-06-19T05:13:02.589Z,1001.15
2023-06-19T05:14:02.592Z,1001.18
2023-06-19T05:15:02.590Z,1001.19
2023-06-19T05:16:02.598Z,1001.14
2023-06-19T05:17:02.623Z,1001.16
2023-06-19T05:18:02.579Z,1001.22
2023-06-19T05:19:02.545Z,1001.26
2023-06-19T05:20:02.519Z,1001.18
2023-06-19T05:21:02.516Z,1001.18
2023-06-19T05:22:02.500Z,1001.23
2023-06-19T05:23:07.498Z,1001.21
2023-06-19T05:24:02.484Z,1001.30
2023-06-19T05:25:02.502Z,1001.25
2023-06-19T05:26:02.535Z,1001.23
2023-06-19T05:27:02.434Z,1001.25
2023-06-19T05:28:04.953Z,1001.24
2023-06-19T05:29:02.411Z,1001.24
2023-06-19T05:30:02.422Z,1001.29
2023-06-19T05:31:02.404Z,1001.27
2023-06-19T05:32:02.444Z,1001.23
2023-06-19T05:33:02.468Z,1001.28
2023-06-19T05:34:07.395Z,1001.19
2023-06-19T05:35:02.380Z,1001.22
2023-06-19T05:36:02.344Z,1001.27
2023-06-19T05:37:02.323Z,1001.24
2023-06-19T05:38:02.365Z,1001.26
2023-06-19T05:39:02.312Z,1001.32
2023-06-19T05:40:02.345Z,1001.31
2023-06-19T05:41:02.283Z,1001.34
2023-06-19T05:42:02.271Z,1001.30
2023-06-19T05:43:02.257Z,1001.36
2023-06-19T05:44:02.280Z,1001.29
2023-06-19T05:45:07.332Z,1001.30
2023-06-19T05:46:02.274Z,1001.35
2023-06-19T05:47:02.216Z,1001.37
2023-06-19T05:48:02.272Z,1001.35
2023-06-19T05:49:02.228Z,1001.36
2023-06-19T05:50:02.201Z,1001.41
2023-06-19T05:51:02.216Z,1001.36
2023-06-19T05:52:02.232Z,1001.39
2023-06-19T05:53:02.150Z,1001.48
2023-06-19T05:54:02.165Z,1001.44
2023-06-19T05:55:02.182Z,1001.47
2023-06-19T05:56:07.136Z,1001.53
2023-06-19T05:57:02.110Z,1001.50
2023-06-19T05:58:02.153Z,1001.53
2023-06-19T05:59:02.099Z,1001.53
2023-06-19T06:00:02.085Z,1001.54
2023-06-19T06:01:02.093Z,1001.52
2023-06-19T06:02:02.055Z,1001.56
2023-06-19T06:03:02.077Z,1001.53
2023-06-19T06:04:02.128Z,1001.49
2023-06-19T06:05:02.165Z,1001.48
2023-06-19T06:06:02.029Z,1001.40
2023-06-19T06:07:07.023Z,1001.44
2023-06-19T06:08:01.994Z,1001.48
2023-06-19T06:09:01.974Z,1001.46
2023-06-19T06:10:01.969Z,1001.49
2023-06-19T06:11:01.978Z,1001.49
2023-06-19T06:12:01.992Z,1001.43
2023-06-19T06:13:01.940Z,1001.49
2023-06-19T06:14:01.932Z,1001.47
2023-06-19T06:15:01.908Z,1001.42
2023-06-19T06:16:01.897Z,1001.47
2023-06-19T06:17:02.010Z,1001.45
2023-06-19T06:18:06.984Z,1001.44
2023-06-19T06:19:01.869Z,1001.50
2023-06-19T06:20:01.852Z,1001.42
2023-06-19T06:21:01.882Z,1001.47
2023-06-19T06:22:01.859Z,1001.48
2023-06-19T06:23:01.842Z,1001.46
2023-06-19T06:24:01.826Z,1001.50
2023-06-19T06:25:01.888Z,1001.49
2023-06-19T06:26:01.785Z,1001.54
2023-06-19T06:27:01.784Z,1001.56
2023-06-19T06:28:01.770Z,1001.54
2023-06-19T06:29:06.773Z,1001.58
2023-06-19T06:30:01.773Z,1001.53
2023-06-19T06:31:01.756Z,1001.54
2023-06-19T06:32:01.814Z,1001.51
2023-06-19T06:33:01.757Z,1001.50
2023-06-19T06:34:01.705Z,1001.57
2023-06-19T06:35:01.683Z,1001.58
2023-06-19T06:36:01.680Z,1001.55
2023-06-19T06:37:06.414Z,1001.59
2023-06-19T06:38:02.762Z,1001.55
2023-06-19T06:39:01.653Z,1001.57
2023-06-19T06:40:06.713Z,1001.60
2023-06-19T06:41:01.627Z,1001.58
2023-06-19T06:42:01.626Z,1001.71
2023-06-19T06:43:01.595Z,1001.70
2023-06-19T06:44:01.672Z,1001.71
2023-06-19T06:45:01.570Z,1001.65
2023-06-19T06:46:01.601Z,1001.61
2023-06-19T06:47:01.561Z,1001.59
2023-06-19T06:48:01.613Z,1001.61
2023-06-19T06:49:01.531Z,1001.63
2023-06-19T06:50:01.569Z,1001.63
2023-06-19T06:51:06.557Z,1001.70
2023-06-19T06:52:01.499Z,1001.65
2023-06-19T06:53:01.606Z,1001.72
2023-06-19T06:54:01.478Z,1001.74
2023-06-19T06:55:01.478Z,1001.63
2023-06-19T06:56:01.460Z,1001.69
2023-06-19T06:57:01.487Z,1001.65
2023-06-19T06:58:01.501Z,1001.57
2023-06-19T06:59:01.415Z,1001.63
2023-06-19T07:00:01.426Z,1001.68
2023-06-19T07:01:01.432Z,1001.72
2023-06-19T07:02:06.485Z,1001.72
2023-06-19T07:03:01.494Z,1001.71
2023-06-19T07:04:01.392Z,1001.72
2023-06-19T07:05:01.378Z,1001.72
2023-06-19T07:06:01.377Z,1001.72
2023-06-19T07:07:01.332Z,1001.76
2023-06-19T07:08:01.325Z,1001.75
2023-06-19T07:09:01.345Z,1001.75
2023-06-19T07:10:01.371Z,1001.68
2023-06-19T07:11:01.290Z,1001.76
2023-06-19T07:12:01.281Z,1001.79
2023-06-19T07:13:06.289Z,1001.78
2023-06-19T07:14:01.269Z,1001.85
2023-06-19T07:15:01.255Z,1001.76
2023-06-19T07:16:01.257Z,1001.77
2023-06-19T07:17:01.333Z,1001.82
2023-06-19T07:18:01.318Z,1001.84
2023-06-19T07:19:01.213Z,1001.93
2023-06-19T07:20:01.192Z,1001.91
2023-06-19T07:21:01.183Z,1001.91
2023-06-19T07:22:01.192Z,1001.95
2023-06-19T07:23:01.215Z,1001.97
2023-06-19T07:24:06.241Z,1001.95
2023-06-19T07:25:01.146Z,1001.96
2023-06-19T07:26:01.134Z,1002.02
2023-06-19T07:27:01.118Z,1001.96
2023-06-19T07:28:01.122Z,1001.93
2023-06-19T07:29:01.120Z,1001.96
2023-06-19T07:30:01.098Z,1001.99
2023-06-19T07:31:01.073Z,1001.94
2023-06-19T07:32:01.078Z,1001.98
2023-06-19T07:33:01.135Z,1001.96
2023-06-19T07:34:01.046Z,1001.97
2023-06-19T07:35:06.102Z,1001.96
2023-06-19T07:36:01.017Z,1002.04
2023-06-19T07:37:01.021Z,1002.01
2023-06-19T07:38:01.007Z,1002.06
2023-06-19T07:39:00.994Z,1002.01
2023-06-19T07:40:01.061Z,1001.99
2023-06-19T07:41:01.002Z,1002.00
2023-06-19T07:42:00.970Z,1002.03
2023-06-19T07:43:00.940Z,1002.00
2023-06-19T07:44:00.945Z,1002.04
2023-06-19T07:45:00.920Z,1002.07
2023-06-19T07:46:05.952Z,1002.04
2023-06-19T07:47:00.980Z,1002.05
2023-06-19T07:48:00.950Z,1002.10
2023-06-19T07:49:00.897Z,1002.09
2023-06-19T07:50:00.874Z,1002.06
2023-06-19T07:51:00.869Z,1002.08
2023-06-19T07:52:00.861Z,1002.15
2023-06-19T07:53:00.880Z,1002.18
2023-06-19T07:54:00.828Z,1002.21
2023-06-19T07:55:00.819Z,1002.23
2023-06-19T07:56:00.833Z,1002.26
2023-06-19T07:57:05.815Z,1002.32
2023-06-19T07:58:00.793Z,1002.35
2023-06-19T07:59:00.815Z,1002.34
2023-06-19T08:00:00.786Z,1002.31
2023-06-19T08:01:00.752Z,1002.32
2023-06-19T08:02:00.757Z,1002.34
2023-06-19T08:03:00.830Z,1002.36
2023-06-19T08:04:00.759Z,1002.38
2023-06-19T08:05:00.767Z,1002.41
2023-06-19T08:06:00.762Z,1002.38
2023-06-19T08:07:00.717Z,1002.40
2023-06-19T08:08:05.708Z,1002.32
2023-06-19T08:09:00.659Z,1002.36
2023-06-19T08:10:12.373Z,1002.39
2023-06-19T08:11:00.635Z,1002.32
2023-06-19T08:12:00.734Z,1002.36
2023-06-19T08:13:00.643Z,1002.35
2023-06-19T08:14:00.612Z,1002.40
2023-06-19T08:15:00.598Z,1002.42
2023-06-19T08:16:00.582Z,1002.45
2023-06-19T08:17:00.625Z,1002.50
2023-06-19T08:18:00.607Z,1002.41
2023-06-19T08:19:05.586Z,1002.45
2023-06-19T08:20:00.580Z,1002.44
2023-06-19T08:21:00.518Z,1002.49
2023-06-19T08:22:00.533Z,1002.49
2023-06-19T08:23:00.534Z,1002.47
2023-06-19T08:24:00.528Z,1002.51
2023-06-19T08:25:00.476Z,1002.56
2023-06-19T08:26:00.515Z,1002.59
2023-06-19T08:27:00.461Z,1002.52
2023-06-19T08:28:00.472Z,1002.56
2023-06-19T08:29:00.454Z,1002.51
2023-06-19T08:30:05.441Z,1002.51
2023-06-19T08:31:00.411Z,1002.48
2023-06-19T08:32:00.448Z,1002.48
2023-06-19T08:33:00.489Z,1002.56
2023-06-19T08:34:00.391Z,1002.55
2023-06-19T08:35:00.378Z,1002.55
2023-06-19T08:36:00.362Z,1002.52
2023-06-19T08:37:00.346Z,1002.53
2023-06-19T08:38:00.347Z,1002.51
2023-06-19T08:39:00.374Z,1002.58
2023-06-19T08:40:00.310Z,1002.50
2023-06-19T08:41:05.336Z,1002.53
2023-06-19T08:42:00.292Z,1002.56
2023-06-19T08:43:00.285Z,1002.50
2023-06-19T08:44:00.289Z,1002.51
2023-06-19T08:45:00.306Z,1002.54
2023-06-19T08:46:00.327Z,1002.59
2023-06-19T08:47:00.237Z,1002.67
2023-06-19T08:48:00.340Z,1002.51
2023-06-19T08:49:00.213Z,1002.59
2023-06-19T08:50:02.372Z,1002.62
2023-06-19T08:51:00.210Z,1002.68
2023-06-19T08:52:05.215Z,1002.74
2023-06-19T08:53:00.262Z,1002.67
2023-06-19T08:54:00.174Z,1002.59
2023-06-19T08:55:00.189Z,1002.62
2023-06-19T08:56:00.158Z,1002.60
2023-06-19T08:57:00.180Z,1002.59
2023-06-19T08:58:00.129Z,1002.59
2023-06-19T08:59:00.171Z,1002.62
2023-06-19T09:00:00.342Z,1002.63
2023-06-19T09:01:00.124Z,1002.65
2023-06-19T09:02:00.154Z,1002.61
2023-06-19T09:03:14.324Z,1002.61
2023-06-19T09:04:00.210Z,1002.67
2023-06-19T09:05:00.041Z,1002.67
2023-06-19T09:06:00.142Z,1002.62
2023-06-19T09:07:00.205Z,1002.56
2023-06-19T09:08:00.108Z,1002.62
2023-06-19T09:09:00.008Z,1002.58
2023-06-19T09:09:59.992Z,1002.64
2023-06-19T09:10:59.984Z,1002.63
2023-06-19T09:11:59.988Z,1002.65
2023-06-19T09:12:59.981Z,1002.68
2023-06-19T09:14:05.028Z,1002.58
2023-06-19T09:14:59.975Z,1002.57
2023-06-19T09:16:00.071Z,1002.51
2023-06-19T09:16:59.942Z,1002.53
2023-06-19T09:17:59.985Z,1002.56
2023-06-19T09:18:59.898Z,1002.51
2023-06-19T09:19:59.900Z,1002.58
2023-06-19T09:20:59.948Z,1002.52
2023-06-19T09:21:59.857Z,1002.61
2023-06-19T09:22:59.850Z,1002.56
2023-06-19T09:23:59.850Z,1002.56
2023-06-19T09:25:04.865Z,1002.51
2023-06-19T09:25:59.900Z,1002.55
2023-06-19T09:26:59.803Z,1002.49
2023-06-19T09:27:59.797Z,1002.45
2023-06-19T09:28:59.786Z,1002.53
2023-06-19T09:29:59.788Z,1002.51
2023-06-19T09:30:59.767Z,1002.45
2023-06-19T09:31:59.793Z,1002.54
2023-06-19T09:32:59.804Z,1002.51
2023-06-19T09:33:59.850Z,1002.56
2023-06-19T09:35:00.007Z,1002.51
2023-06-19T09:36:04.885Z,1002.56
2023-06-19T09:36:59.701Z,1002.65
2023-06-19T09:37:59.728Z,1002.66
2023-06-19T09:38:59.851Z,1002.76
2023-06-19T09:39:59.681Z,1002.55
2023-06-19T09:40:59.656Z,1002.60
2023-06-19T09:41:59.657Z,1002.56
2023-06-19T09:42:59.630Z,1002.57
2023-06-19T09:43:59.638Z,1002.58
2023-06-19T09:44:59.645Z,1002.54
2023-06-19T09:45:59.606Z,1002.60
2023-06-19T09:47:04.689Z,1002.55
2023-06-19T09:47:59.705Z,1002.67
2023-06-19T09:48:59.598Z,1002.61
2023-06-19T09:49:59.554Z,1002.53
2023-06-19T09:50:59.548Z,1002.54
2023-06-19T09:51:59.538Z,1002.55
2023-06-19T09:52:59.518Z,1002.66
2023-06-19T09:53:59.573Z,1002.56
2023-06-19T09:54:59.526Z,1002.53
2023-06-19T09:55:59.507Z,1002.59
2023-06-19T09:56:59.485Z,1002.55
2023-06-19T09:57:59.490Z,1002.55
2023-06-19T09:58:59.471Z,1002.58
2023-06-19T10:00:04.562Z,1002.51
2023-06-19T10:00:59.450Z,1002.50
2023-06-19T10:01:59.479Z,1002.46
2023-06-19T10:02:59.562Z,1002.43
2023-06-19T10:03:59.402Z,1002.49
2023-06-19T10:04:59.389Z,1002.56
2023-06-19T10:05:59.431Z,1002.54
2023-06-19T10:06:59.367Z,1002.51
2023-06-19T10:07:59.366Z,1002.48
2023-06-19T10:08:59.343Z,1002.42
2023-06-19T10:09:59.334Z,1002.45
2023-06-19T10:10:59.329Z,1002.51
2023-06-19T10:11:59.370Z,1002.38
2023-06-19T10:13:04.332Z,1002.41
2023-06-19T10:13:59.294Z,1002.40
2023-06-19T10:14:59.280Z,1002.42
2023-06-19T10:15:59.292Z,1002.37
2023-06-19T10:16:59.296Z,1002.38
2023-06-19T10:17:59.361Z,1002.41
2023-06-19T10:18:59.287Z,1002.38
2023-06-19T10:19:59.234Z,1002.32
2023-06-19T10:20:59.339Z,1002.37
2023-06-19T10:22:01.397Z,1002.29
2023-06-19T10:22:59.192Z,1002.42
2023-06-19T10:24:04.309Z,1002.34
2023-06-19T10:24:59.184Z,1002.32
2023-06-19T10:25:59.172Z,1002.25
2023-06-19T10:26:59.167Z,1002.30
2023-06-19T10:27:59.133Z,1002.34
2023-06-19T10:28:59.128Z,1002.23
2023-06-19T10:30:10.119Z,1002.30
2023-06-19T10:30:59.173Z,1002.27
2023-06-19T10:31:59.102Z,1002.29
2023-06-19T10:32:59.113Z,1002.22
2023-06-19T10:33:59.073Z,1002.23
2023-06-19T10:35:04.102Z,1002.23
2023-06-19T10:35:59.105Z,1002.28
2023-06-19T10:36:59.058Z,1002.29
2023-06-19T10:37:59.034Z,1002.21
2023-06-19T10:38:59.019Z,1002.27
2023-06-19T10:39:59.004Z,1002.25
2023-06-19T10:40:59.029Z,1002.18
2023-06-19T10:41:59.037Z,1002.20
2023-06-19T10:42:58.972Z,1002.20
2023-06-19T10:43:58.995Z,1002.18
2023-06-19T10:44:58.960Z,1002.19
2023-06-19T10:46:04.040Z,1002.15
2023-06-19T10:46:58.967Z,1002.23
2023-06-19T10:47:59.014Z,1002.15
2023-06-19T10:48:58.915Z,1002.17
2023-06-19T10:49:58.911Z,1002.17
2023-06-19T10:50:58.926Z,1002.29
2023-06-19T10:51:58.879Z,1002.21
2023-06-19T10:52:58.871Z,1002.21
2023-06-19T10:53:58.903Z,1002.14
2023-06-19T10:54:58.856Z,1002.07
2023-06-19T10:55:58.832Z,1002.09
2023-06-19T10:56:58.832Z,1002.07
2023-06-19T10:57:58.813Z,1002.06
2023-06-19T10:59:03.867Z,1002.04
2023-06-19T10:59:58.861Z,1002.06
2023-06-19T11:00:58.898Z,1001.97
2023-06-19T11:01:58.783Z,1002.02
2023-06-19T11:02:59.045Z,1002.05
2023-06-19T11:03:58.759Z,1002.06
2023-06-19T11:04:58.741Z,1002.08
2023-06-19T11:05:58.721Z,1002.09
2023-06-19T11:06:58.814Z,1002.06
2023-06-19T11:07:58.721Z,1002.06
2023-06-19T11:08:58.702Z,1001.99
2023-06-19T11:09:58.691Z,1001.98
2023-06-19T11:10:58.683Z,1001.99
2023-06-19T11:12:03.679Z,1001.94
2023-06-19T11:12:58.688Z,1001.97
2023-06-19T11:13:58.813Z,1001.91
2023-06-19T11:14:58.663Z,1001.94
2023-06-19T11:15:58.681Z,1002.02
2023-06-19T11:16:58.643Z,1002.03
2023-06-19T11:17:58.635Z,1001.96
2023-06-19T11:18:58.587Z,1001.83
2023-06-19T11:19:58.662Z,1002.01
2023-06-19T11:20:59.930Z,1002.02
2023-06-19T11:21:58.590Z,1002.03
2023-06-19T11:22:58.589Z,1001.99
2023-06-19T11:23:58.579Z,1001.99
2023-06-19T11:25:03.549Z,1001.94
2023-06-19T11:25:58.533Z,1002.05
2023-06-19T11:26:58.607Z,1002.00
2023-06-19T11:27:58.498Z,1001.97
2023-06-19T11:28:58.478Z,1001.96
2023-06-19T11:29:58.466Z,1001.88
2023-06-19T11:30:58.488Z,1001.82
2023-06-19T11:31:58.457Z,1001.90
2023-06-19T11:32:58.576Z,1001.81
2023-06-19T11:33:58.430Z,1001.95
2023-06-19T11:34:58.432Z,1001.88
2023-06-19T11:35:58.406Z,1001.88
2023-06-19T11:36:58.403Z,1001.83
2023-06-19T11:38:03.452Z,1001.75
2023-06-19T11:38:58.528Z,1001.75
2023-06-19T11:39:58.360Z,1001.72
2023-06-19T11:40:58.387Z,1001.77
2023-06-19T11:41:58.359Z,1001.72
2023-06-19T11:42:58.345Z,1001.77
2023-06-19T11:43:58.318Z,1001.79
2023-06-19T11:44:58.451Z,1001.78
2023-06-19T11:45:58.361Z,1001.92
2023-06-19T11:46:58.311Z,1001.89
2023-06-19T11:47:58.418Z,1001.94
2023-06-19T11:49:07.308Z,1001.87
2023-06-19T11:49:58.261Z,1001.93
2023-06-19T11:50:58.390Z,1001.94
2023-06-19T11:51:58.246Z,1001.90
2023-06-19T11:52:58.257Z,1001.79
2023-06-19T11:53:58.257Z,1001.80
2023-06-19T11:54:58.218Z,1001.76
2023-06-19T11:55:58.231Z,1001.79
2023-06-19T11:56:58.268Z,1001.76
2023-06-19T11:57:58.182Z,1001.70
2023-06-19T11:58:58.177Z,1001.72
2023-06-19T12:00:03.195Z,1001.84
2023-06-19T12:00:58.175Z,1001.73
2023-06-19T12:01:58.192Z,1001.71
2023-06-19T12:02:58.362Z,1001.68
2023-06-19T12:03:58.179Z,1001.69
2023-06-19T12:04:58.123Z,1001.75
2023-06-19T12:05:58.108Z,1001.78
2023-06-19T12:06:58.113Z,1001.69
2023-06-19T12:07:58.087Z,1001.65
2023-06-19T12:08:58.167Z,1001.68
2023-06-19T12:09:58.095Z,1001.74
2023-06-19T12:11:03.074Z,1001.67
2023-06-19T12:11:58.038Z,1001.69
2023-06-19T12:12:58.030Z,1001.66
2023-06-19T12:13:58.025Z,1001.64
2023-06-19T12:14:58.103Z,1001.63
2023-06-19T12:15:57.998Z,1001.51
2023-06-19T12:16:58.028Z,1001.55
2023-06-19T12:17:58.003Z,1001.57
2023-06-19T12:18:58.089Z,1001.53
2023-06-19T12:19:57.956Z,1001.57
2023-06-19T12:20:57.994Z,1001.58
2023-06-19T12:22:02.983Z,1001.61
2023-06-19T12:22:57.951Z,1001.56
2023-06-19T12:23:57.971Z,1001.56
2023-06-19T12:24:57.910Z,1001.60
2023-06-19T12:25:57.916Z,1001.55
2023-06-19T12:26:57.938Z,1001.57
2023-06-19T12:27:57.881Z,1001.55
2023-06-19T12:28:57.866Z,1001.55
2023-06-19T12:29:57.846Z,1001.48
2023-06-19T12:30:57.920Z,1001.49
2023-06-19T12:31:57.829Z,1001.50
2023-06-19T12:32:57.924Z,1001.51
2023-06-19T12:34:00.229Z,1001.41
2023-06-19T12:35:02.815Z,1001.44
2023-06-19T12:35:57.799Z,1001.47
2023-06-19T12:36:57.820Z,1001.44
2023-06-19T12:37:57.790Z,1001.44
2023-06-19T12:38:57.759Z,1001.40
2023-06-19T12:39:57.825Z,1001.38
2023-06-19T12:40:57.739Z,1001.40
2023-06-19T12:41:57.800Z,1001.34
2023-06-19T12:42:57.728Z,1001.35
2023-06-19T12:43:57.704Z,1001.37
2023-06-19T12:44:57.679Z,1001.37
2023-06-19T12:45:57.824Z,1001.38
2023-06-19T12:46:57.674Z,1001.38
2023-06-19T12:48:02.687Z,1001.34
2023-06-19T12:48:57.663Z,1001.28
2023-06-19T12:49:57.651Z,1001.31
2023-06-19T12:50:57.619Z,1001.38
2023-06-19T12:51:57.711Z,1001.33
2023-06-19T12:52:57.593Z,1001.24
2023-06-19T12:53:57.588Z,1001.32
2023-06-19T12:54:57.578Z,1001.27
2023-06-19T12:56:02.206Z,1001.27
2023-06-19T12:56:57.570Z,1001.30
2023-06-19T12:57:57.627Z,1001.27
2023-06-19T12:58:57.529Z,1001.23
2023-06-19T12:59:57.519Z,1001.21
2023-06-19T13:01:02.548Z,1001.31
2023-06-19T13:01:57.534Z,1001.29
2023-06-19T13:02:57.606Z,1001.32
2023-06-19T13:03:57.644Z,1001.32
2023-06-19T13:04:57.471Z,1001.27
2023-06-19T13:05:57.466Z,1001.32
2023-06-19T13:06:57.458Z,1001.25
2023-06-19T13:07:57.478Z,1001.26
2023-06-19T13:08:57.430Z,1001.25
2023-06-19T13:09:57.494Z,1001.28
2023-06-19T13:10:57.490Z,1001.32
2023-06-19T13:11:57.482Z,1001.33
2023-06-19T13:12:57.484Z,1001.34
2023-06-19T13:14:02.425Z,1001.28
2023-06-19T13:14:57.395Z,1001.25
2023-06-19T13:15:57.534Z,1001.20
2023-06-19T13:16:57.438Z,1001.25
2023-06-19T13:17:57.377Z,1001.23
2023-06-19T13:18:57.333Z,1001.34
2023-06-19T13:19:57.308Z,1001.25
2023-06-19T13:20:57.297Z,1001.27
2023-06-19T13:21:57.380Z,1001.23
2023-06-19T13:22:57.290Z,1001.23
2023-06-19T13:23:57.291Z,1001.22
2023-06-19T13:24:57.261Z,1001.22
2023-06-19T13:25:57.250Z,1001.22
2023-06-19T13:27:02.284Z,1001.24
2023-06-19T13:27:57.298Z,1001.18
2023-06-19T13:28:57.240Z,1001.22
2023-06-19T13:29:57.227Z,1001.25
2023-06-19T13:30:57.192Z,1001.21
2023-06-19T13:31:57.191Z,1001.19
2023-06-19T13:32:57.213Z,1001.19
2023-06-19T13:33:57.204Z,1001.22
2023-06-19T13:34:57.197Z,1001.23
2023-06-19T13:35:57.152Z,1001.23
2023-06-19T13:36:57.136Z,1001.19
2023-06-19T13:37:57.129Z,1001.18
2023-06-19T13:38:57.114Z,1001.09
2023-06-19T13:40:02.112Z,1001.10
2023-06-19T13:40:57.112Z,1001.16
2023-06-19T13:41:57.220Z,1001.11
2023-06-19T13:42:57.062Z,1001.06
2023-06-19T13:43:57.053Z,1001.09
2023-06-19T13:44:57.052Z,1001.05
2023-06-19T13:45:57.086Z,1001.05
2023-06-19T13:46:57.076Z,1001.12
2023-06-19T13:47:57.073Z,1001.07
2023-06-19T13:48:57.006Z,1001.03
2023-06-19T13:49:56.986Z,1001.02
2023-06-19T13:50:57.009Z,1000.97
2023-06-19T13:51:56.972Z,1000.97
2023-06-19T13:53:01.976Z,1000.92
2023-06-19T13:53:57.063Z,1000.89
2023-06-19T13:54:56.958Z,1000.88
2023-06-19T13:55:56.935Z,1000.94
2023-06-19T13:56:56.912Z,1000.89
2023-06-19T13:57:56.903Z,1000.80
2023-06-19T13:58:56.888Z,1000.85
2023-06-19T13:59:56.913Z,1000.83
2023-06-19T14:00:57.050Z,1000.83
2023-06-19T14:01:56.909Z,1000.86
2023-06-19T14:02:56.923Z,1000.73
2023-06-19T14:03:56.831Z,1000.78
2023-06-19T14:04:56.839Z,1000.87
2023-06-19T14:06:01.834Z,1000.78
2023-06-19T14:06:56.874Z,1000.72
2023-06-19T14:07:56.910Z,1000.75
2023-06-19T14:08:56.791Z,1000.73
2023-06-19T14:09:56.775Z,1000.65
2023-06-19T14:10:56.768Z,1000.70
2023-06-19T14:11:56.761Z,1000.73
2023-06-19T14:12:56.736Z,1000.66
2023-06-19T14:13:56.747Z,1000.66
2023-06-19T14:14:56.749Z,1000.70
2023-06-19T14:15:56.720Z,1000.63
2023-06-19T14:16:56.708Z,1000.70
2023-06-19T14:17:56.775Z,1000.63
2023-06-19T14:19:01.710Z,1000.62
2023-06-19T14:19:56.714Z,1000.57
2023-06-19T14:20:56.743Z,1000.58
2023-06-19T14:21:56.641Z,1000.61
2023-06-19T14:22:56.635Z,1000.58
2023-06-19T14:23:56.745Z,1000.63
2023-06-19T14:24:56.612Z,1000.58
2023-06-19T14:25:56.616Z,1000.56
2023-06-19T14:26:56.680Z,1000.54
2023-06-19T14:27:56.584Z,1000.59
2023-06-19T14:28:56.575Z,1000.52
2023-06-19T14:29:56.556Z,1000.54
2023-06-19T14:30:56.547Z,1000.59
2023-06-19T14:32:01.555Z,1000.51
2023-06-19T14:32:56.692Z,1000.55
2023-06-19T14:33:56.557Z,1000.58
2023-06-19T14:34:56.509Z,1000.58
2023-06-19T14:35:56.497Z,1000.55
2023-06-19T14:36:56.484Z,1000.60
2023-06-19T14:37:56.511Z,1000.63
2023-06-19T14:38:56.546Z,1000.62
2023-06-19T14:39:56.446Z,1000.60
2023-06-19T14:40:56.441Z,1000.52
2023-06-19T14:41:56.427Z,1000.62
2023-06-19T14:42:56.423Z,1000.56
2023-06-19T14:43:56.415Z,1000.58
2023-06-19T14:45:01.507Z,1000.56
2023-06-19T14:45:56.386Z,1000.60
2023-06-19T14:46:56.397Z,1000.56
2023-06-19T14:47:56.390Z,1000.52
2023-06-19T14:48:56.351Z,1000.52
2023-06-19T14:49:56.380Z,1000.45
2023-06-19T14:50:56.409Z,1000.49
2023-06-19T14:51:56.332Z,1000.53
2023-06-19T14:52:56.308Z,1000.48
2023-06-19T14:53:56.297Z,1000.42
2023-06-19T14:54:59.268Z,1000.43
2023-06-19T14:56:01.341Z,1000.45
2023-06-19T14:56:56.382Z,1000.48
2023-06-19T14:57:56.278Z,1000.47
2023-06-19T14:58:56.241Z,1000.44
2023-06-19T14:59:56.243Z,1000.44
2023-06-19T15:00:56.263Z,1000.44
2023-06-19T15:01:56.278Z,1000.47
2023-06-19T15:02:56.359Z,1000.41
2023-06-19T15:03:56.309Z,1000.42
2023-06-19T15:05:05.663Z,1000.42
2023-06-19T15:05:57.221Z,1000.39
2023-06-19T15:06:56.159Z,1000.50
2023-06-19T15:07:56.177Z,1000.44
2023-06-19T15:09:03.132Z,1000.40
2023-06-19T15:09:56.125Z,1000.40
2023-06-19T15:10:56.125Z,1000.39
2023-06-19T15:11:56.120Z,1000.44
2023-06-19T15:12:56.114Z,1000.45
2023-06-19T15:13:56.106Z,1000.38
2023-06-19T15:14:56.089Z,1000.41
2023-06-19T15:15:56.070Z,1000.40
2023-06-19T15:16:56.060Z,1000.44
2023-06-19T15:17:56.126Z,1000.47
2023-06-19T15:18:56.067Z,1000.44
2023-06-19T15:20:01.106Z,1000.47
2023-06-19T15:20:56.036Z,1000.40
2023-06-19T15:21:56.014Z,1000.36
2023-06-19T15:22:55.989Z,1000.32
2023-06-19T15:23:56.025Z,1000.31
2023-06-19T15:24:55.978Z,1000.29
2023-06-19T15:25:56.054Z,1000.35
2023-06-19T15:26:55.940Z,1000.29
2023-06-19T15:27:55.933Z,1000.29
2023-06-19T15:28:55.925Z,1000.28
2023-06-19T15:29:55.924Z,1000.31
2023-06-19T15:31:00.921Z,1000.27
2023-06-19T15:31:55.942Z,1000.34
2023-06-19T15:32:55.924Z,1000.34
2023-06-19T15:33:55.893Z,1000.34
2023-06-19T15:34:55.870Z,1000.31
2023-06-19T15:35:55.851Z,1000.29
2023-06-19T15:36:55.832Z,1000.27
2023-06-19T15:37:55.926Z,1000.31
2023-06-19T15:38:55.840Z,1000.26
2023-06-19T15:39:55.966Z,1000.28
2023-06-19T15:40:55.792Z,1000.26
2023-06-19T15:42:00.806Z,1000.25
2023-06-19T15:42:55.779Z,1000.21
2023-06-19T15:43:55.779Z,1000.22
2023-06-19T15:44:55.743Z,1000.18
2023-06-19T15:45:55.857Z,1000.14
2023-06-19T15:46:55.729Z,1000.21
2023-06-19T15:47:55.772Z,1000.11
2023-06-19T15:48:55.711Z,1000.13
2023-06-19T15:49:55.696Z,1000.14
2023-06-19T15:50:55.685Z,1000.08
2023-06-19T15:51:55.703Z,1000.04
2023-06-19T15:53:00.780Z,1000.04
2023-06-19T15:53:55.668Z,1000.04
2023-06-19T15:54:55.642Z,1000.06
2023-06-19T15:55:55.632Z,999.99
2023-06-19T15:56:58.041Z,999.99
2023-06-19T15:57:55.630Z,1000.03
2023-06-19T15:58:55.628Z,1000.02
2023-06-19T15:59:55.588Z,1000.03
2023-06-19T16:00:55.584Z,1000.02
2023-06-19T16:01:55.718Z,1000.02
2023-06-19T16:02:55.639Z,1000.01
2023-06-19T16:04:00.662Z,999.95
2023-06-19T16:04:55.582Z,999.98
2023-06-19T16:06:06.006Z,1000.00
2023-06-19T16:06:56.518Z,999.95
2023-06-19T16:07:55.525Z,999.89
2023-06-19T16:08:55.508Z,999.87
2023-06-19T16:09:56.123Z,999.92
2023-06-19T16:10:55.526Z,999.94
2023-06-19T16:11:55.462Z,999.89
2023-06-19T16:12:55.449Z,999.88
2023-06-19T16:13:55.433Z,999.92
2023-06-19T16:15:00.448Z,999.89
2023-06-19T16:15:55.439Z,999.87
2023-06-19T16:16:55.497Z,999.90
2023-06-19T16:17:55.426Z,999.89
2023-06-19T16:18:55.378Z,999.87
2023-06-19T16:19:55.370Z,999.89
2023-06-19T16:20:55.354Z,999.88
2023-06-19T16:21:55.355Z,999.86
2023-06-19T16:22:55.353Z,999.92
2023-06-19T16:23:55.412Z,999.87
2023-06-19T16:24:55.345Z,999.88
2023-06-19T16:26:00.336Z,999.92
2023-06-19T16:26:55.328Z,999.90
2023-06-19T16:27:55.288Z,999.90
2023-06-19T16:28:55.272Z,999.78
2023-06-19T16:29:55.297Z,999.85
2023-06-19T16:30:55.309Z,999.90
2023-06-19T16:32:08.131Z,999.86
2023-06-19T16:32:55.287Z,999.81
2023-06-19T16:33:55.218Z,999.82
2023-06-19T16:34:55.206Z,999.81
2023-06-19T16:35:55.255Z,999.82
2023-06-19T16:37:00.214Z,999.82
2023-06-19T16:37:55.221Z,999.75
2023-06-19T16:38:55.167Z,999.81
2023-06-19T16:39:55.193Z,999.84
2023-06-19T16:40:55.189Z,999.75
2023-06-19T16:41:55.192Z,999.75
2023-06-19T16:42:55.200Z,999.82
2023-06-19T16:43:55.112Z,999.83
2023-06-19T16:44:55.109Z,999.84
2023-06-19T16:45:55.098Z,999.85
2023-06-19T16:46:55.150Z,999.86
2023-06-19T16:48:00.177Z,999.91
2023-06-19T16:48:55.115Z,999.86
2023-06-19T16:49:55.056Z,999.87
2023-06-19T16:50:55.042Z,999.92
2023-06-19T16:51:55.032Z,999.87
2023-06-19T16:52:55.024Z,999.85
2023-06-19T16:53:55.008Z,999.89
2023-06-19T16:54:55.059Z,999.90
2023-06-19T16:55:55.009Z,999.94
2023-06-19T16:56:55.009Z,999.91
2023-06-19T16:57:54.966Z,999.94
2023-06-19T16:58:59.983Z,999.96
2023-06-19T16:59:54.962Z,999.94
2023-06-19T17:00:55.170Z,999.97
2023-06-19T17:01:54.990Z,999.99
2023-06-19T17:02:55.015Z,999.97
2023-06-19T17:03:54.969Z,999.94
2023-06-19T17:04:54.895Z,999.88
2023-06-19T17:05:54.876Z,999.88
2023-06-19T17:06:54.863Z,999.92
2023-06-19T17:07:54.857Z,999.86